sensor_id;sensor_type;location;lat;lon;timestamp;P1;durP1;ratioP1;P2;durP2;ratioP2
69244;SDS011;56357;52.304;4.870;2022-11-20T00:01:12;6.65;;;2.58;;
69244;SDS011;56357;52.304;4.870;2022-11-20T00:03:40;6.50;;;2.38;;
69244;SDS011;56357;52.304;4.870;2022-11-20T00:06:07;5.53;;;2.17;;
69244;SDS011;56357;52.304;4.870;2022-11-20T00:08:36;6.72;;;2.63;;
69244;SDS011;56357;52.304;4.870;2022-11-20T00:11:12;7.15;;;2.90;;
69244;SDS011;56357;52.304;4.870;2022-11-20T00:13:40;7.45;;;2.42;;
69244;SDS011;56357;52.304;4.870;2022-11-20T00:16:08;7.35;;;2.60;;
69244;SDS011;56357;52.304;4.870;2022-11-20T00:18:36;6.17;;;2.47;;
69244;SDS011;56357;52.304;4.870;2022-11-20T00:21:04;6.03;;;2.10;;
69244;SDS011;56357;52.304;4.870;2022-11-20T00:23:32;6.18;;;2.33;;
69244;SDS011;56357;52.304;4.870;2022-11-20T00:26:03;6.10;;;2.05;;
69244;SDS011;56357;52.304;4.870;2022-11-20T00:28:30;7.10;;;2.53;;
69244;SDS011;56357;52.304;4.870;2022-11-20T00:31:00;5.40;;;2.10;;
69244;SDS011;56357;52.304;4.870;2022-11-20T00:33:30;7.97;;;2.72;;
69244;SDS011;56357;52.304;4.870;2022-11-20T00:36:03;7.70;;;2.35;;
69244;SDS011;56357;52.304;4.870;2022-11-20T00:38:32;5.95;;;2.38;;
69244;SDS011;56357;52.304;4.870;2022-11-20T00:40:59;8.07;;;3.40;;
69244;SDS011;56357;52.304;4.870;2022-11-20T00:43:27;6.53;;;2.30;;
69244;SDS011;56357;52.304;4.870;2022-11-20T00:46:00;6.80;;;2.38;;
69244;SDS011;56357;52.304;4.870;2022-11-20T00:48:28;6.63;;;2.88;;
69244;SDS011;56357;52.304;4.870;2022-11-20T00:50:55;6.72;;;2.58;;
69244;SDS011;56357;52.304;4.870;2022-11-20T00:53:21;6.93;;;2.30;;
69244;SDS011;56357;52.304;4.870;2022-11-20T00:55:58;7.83;;;2.87;;
69244;SDS011;56357;52.304;4.870;2022-11-20T00:58:33;6.38;;;2.38;;
69244;SDS011;56357;52.304;4.870;2022-11-20T01:01:02;7.35;;;3.17;;
69244;SDS011;56357;52.304;4.870;2022-11-20T01:03:32;6.55;;;2.70;;
69244;SDS011;56357;52.304;4.870;2022-11-20T01:06:03;6.50;;;2.97;;
69244;SDS011;56357;52.304;4.870;2022-11-20T01:08:33;8.07;;;2.47;;
69244;SDS011;56357;52.304;4.870;2022-11-20T01:11:02;6.90;;;2.50;;
69244;SDS011;56357;52.304;4.870;2022-11-20T01:13:30;6.80;;;2.70;;
69244;SDS011;56357;52.304;4.870;2022-11-20T01:18:37;6.43;;;2.70;;
69244;SDS011;56357;52.304;4.870;2022-11-20T01:21:07;6.93;;;2.77;;
69244;SDS011;56357;52.304;4.870;2022-11-20T01:23:37;7.45;;;2.70;;
69244;SDS011;56357;52.304;4.870;2022-11-20T01:26:07;6.88;;;2.70;;
69244;SDS011;56357;52.304;4.870;2022-11-20T01:28:35;7.35;;;2.80;;
69244;SDS011;56357;52.304;4.870;2022-11-20T01:31:01;6.85;;;2.92;;
69244;SDS011;56357;52.304;4.870;2022-11-20T01:33:38;5.50;;;2.50;;
69244;SDS011;56357;52.304;4.870;2022-11-20T01:36:05;5.95;;;2.92;;
69244;SDS011;56357;52.304;4.870;2022-11-20T01:38:32;5.95;;;2.50;;
69244;SDS011;56357;52.304;4.870;2022-11-20T01:40:58;6.45;;;2.60;;
69244;SDS011;56357;52.304;4.870;2022-11-20T01:43:25;6.28;;;2.72;;
69244;SDS011;56357;52.304;4.870;2022-11-20T01:48:44;7.22;;;2.70;;
69244;SDS011;56357;52.304;4.870;2022-11-20T01:51:19;6.22;;;2.40;;
69244;SDS011;56357;52.304;4.870;2022-11-20T01:54:08;7.03;;;2.80;;
69244;SDS011;56357;52.304;4.870;2022-11-20T01:56:44;6.07;;;2.15;;
69244;SDS011;56357;52.304;4.870;2022-11-20T01:59:13;7.55;;;2.85;;
69244;SDS011;56357;52.304;4.870;2022-11-20T02:01:43;7.60;;;2.50;;
69244;SDS011;56357;52.304;4.870;2022-11-20T02:04:10;6.32;;;3.00;;
69244;SDS011;56357;52.304;4.870;2022-11-20T02:06:40;6.20;;;2.50;;
69244;SDS011;56357;52.304;4.870;2022-11-20T02:09:10;6.63;;;2.50;;
69244;SDS011;56357;52.304;4.870;2022-11-20T02:11:37;6.45;;;2.53;;
69244;SDS011;56357;52.304;4.870;2022-11-20T02:14:03;6.50;;;2.92;;
69244;SDS011;56357;52.304;4.870;2022-11-20T02:16:34;6.00;;;2.30;;
69244;SDS011;56357;52.304;4.870;2022-11-20T02:19:07;6.43;;;2.70;;
69244;SDS011;56357;52.304;4.870;2022-11-20T02:22:01;6.68;;;3.00;;
69244;SDS011;56357;52.304;4.870;2022-11-20T02:24:33;6.43;;;2.53;;
69244;SDS011;56357;52.304;4.870;2022-11-20T02:27:04;6.45;;;2.60;;
69244;SDS011;56357;52.304;4.870;2022-11-20T02:29:39;7.43;;;2.97;;
69244;SDS011;56357;52.304;4.870;2022-11-20T02:32:18;6.78;;;3.00;;
69244;SDS011;56357;52.304;4.870;2022-11-20T02:34:45;6.85;;;2.55;;
69244;SDS011;56357;52.304;4.870;2022-11-20T02:37:12;6.93;;;2.87;;
69244;SDS011;56357;52.304;4.870;2022-11-20T02:39:39;6.55;;;2.25;;
69244;SDS011;56357;52.304;4.870;2022-11-20T02:42:06;8.40;;;2.67;;
69244;SDS011;56357;52.304;4.870;2022-11-20T02:44:32;6.93;;;2.60;;
69244;SDS011;56357;52.304;4.870;2022-11-20T02:46:59;6.35;;;2.83;;
69244;SDS011;56357;52.304;4.870;2022-11-20T02:49:25;6.07;;;2.20;;
69244;SDS011;56357;52.304;4.870;2022-11-20T02:51:52;6.50;;;2.58;;
69244;SDS011;56357;52.304;4.870;2022-11-20T02:54:18;7.15;;;2.70;;
69244;SDS011;56357;52.304;4.870;2022-11-20T02:56:45;5.85;;;2.63;;
69244;SDS011;56357;52.304;4.870;2022-11-20T02:59:11;6.65;;;2.45;;
69244;SDS011;56357;52.304;4.870;2022-11-20T03:01:37;6.77;;;3.10;;
69244;SDS011;56357;52.304;4.870;2022-11-20T03:04:04;7.00;;;2.83;;
69244;SDS011;56357;52.304;4.870;2022-11-20T03:06:30;6.88;;;2.88;;
69244;SDS011;56357;52.304;4.870;2022-11-20T03:08:56;6.75;;;2.85;;
69244;SDS011;56357;52.304;4.870;2022-11-20T03:11:23;6.95;;;2.97;;
69244;SDS011;56357;52.304;4.870;2022-11-20T03:13:49;6.90;;;2.93;;
69244;SDS011;56357;52.304;4.870;2022-11-20T03:16:17;6.35;;;2.67;;
69244;SDS011;56357;52.304;4.870;2022-11-20T03:18:45;6.30;;;2.58;;
69244;SDS011;56357;52.304;4.870;2022-11-20T03:21:12;6.38;;;2.85;;
69244;SDS011;56357;52.304;4.870;2022-11-20T03:23:39;7.63;;;2.72;;
69244;SDS011;56357;52.304;4.870;2022-11-20T03:26:13;6.27;;;2.77;;
69244;SDS011;56357;52.304;4.870;2022-11-20T03:29:03;7.18;;;2.60;;
69244;SDS011;56357;52.304;4.870;2022-11-20T03:31:31;6.72;;;2.53;;
69244;SDS011;56357;52.304;4.870;2022-11-20T03:33:59;5.97;;;2.45;;
69244;SDS011;56357;52.304;4.870;2022-11-20T03:36:27;6.78;;;2.70;;
69244;SDS011;56357;52.304;4.870;2022-11-20T03:38:54;6.57;;;2.80;;
69244;SDS011;56357;52.304;4.870;2022-11-20T03:41:22;7.78;;;2.80;;
69244;SDS011;56357;52.304;4.870;2022-11-20T03:44:00;6.80;;;2.78;;
69244;SDS011;56357;52.304;4.870;2022-11-20T03:46:28;6.78;;;2.83;;
69244;SDS011;56357;52.304;4.870;2022-11-20T03:48:55;7.85;;;3.03;;
69244;SDS011;56357;52.304;4.870;2022-11-20T03:51:23;5.90;;;2.47;;
69244;SDS011;56357;52.304;4.870;2022-11-20T03:53:51;6.28;;;2.45;;
69244;SDS011;56357;52.304;4.870;2022-11-20T03:56:20;6.32;;;2.50;;
69244;SDS011;56357;52.304;4.870;2022-11-20T03:58:49;6.25;;;2.63;;
69244;SDS011;56357;52.304;4.870;2022-11-20T04:01:20;6.05;;;2.47;;
69244;SDS011;56357;52.304;4.870;2022-11-20T04:03:48;6.37;;;2.70;;
69244;SDS011;56357;52.304;4.870;2022-11-20T04:06:20;6.93;;;2.67;;
69244;SDS011;56357;52.304;4.870;2022-11-20T04:08:48;6.45;;;2.63;;
69244;SDS011;56357;52.304;4.870;2022-11-20T04:11:16;7.95;;;2.83;;
69244;SDS011;56357;52.304;4.870;2022-11-20T04:13:48;6.45;;;3.00;;
69244;SDS011;56357;52.304;4.870;2022-11-20T04:16:17;7.60;;;2.80;;
69244;SDS011;56357;52.304;4.870;2022-11-20T04:18:44;6.63;;;2.97;;
69244;SDS011;56357;52.304;4.870;2022-11-20T04:21:11;7.55;;;3.00;;
69244;SDS011;56357;52.304;4.870;2022-11-20T04:23:38;6.97;;;2.97;;
69244;SDS011;56357;52.304;4.870;2022-11-20T04:26:09;7.07;;;2.80;;
69244;SDS011;56357;52.304;4.870;2022-11-20T04:28:36;7.43;;;2.83;;
69244;SDS011;56357;52.304;4.870;2022-11-20T04:31:06;7.25;;;2.88;;
69244;SDS011;56357;52.304;4.870;2022-11-20T04:33:34;6.20;;;2.72;;
69244;SDS011;56357;52.304;4.870;2022-11-20T04:36:02;6.43;;;2.80;;
69244;SDS011;56357;52.304;4.870;2022-11-20T04:38:33;6.47;;;2.50;;
69244;SDS011;56357;52.304;4.870;2022-11-20T04:41:00;6.70;;;3.10;;
69244;SDS011;56357;52.304;4.870;2022-11-20T04:43:28;7.53;;;3.40;;
69244;SDS011;56357;52.304;4.870;2022-11-20T04:45:55;6.47;;;3.08;;
69244;SDS011;56357;52.304;4.870;2022-11-20T04:48:23;7.38;;;3.05;;
69244;SDS011;56357;52.304;4.870;2022-11-20T04:50:50;5.70;;;2.85;;
69244;SDS011;56357;52.304;4.870;2022-11-20T04:53:17;5.93;;;3.03;;
69244;SDS011;56357;52.304;4.870;2022-11-20T04:55:44;7.15;;;2.80;;
69244;SDS011;56357;52.304;4.870;2022-11-20T04:58:10;7.03;;;2.90;;
69244;SDS011;56357;52.304;4.870;2022-11-20T05:00:37;6.88;;;3.25;;
69244;SDS011;56357;52.304;4.870;2022-11-20T05:03:04;6.70;;;2.85;;
69244;SDS011;56357;52.304;4.870;2022-11-20T05:05:30;6.17;;;3.03;;
69244;SDS011;56357;52.304;4.870;2022-11-20T05:07:57;6.00;;;2.83;;
69244;SDS011;56357;52.304;4.870;2022-11-20T05:10:25;6.25;;;2.65;;
69244;SDS011;56357;52.304;4.870;2022-11-20T05:12:52;6.95;;;3.15;;
69244;SDS011;56357;52.304;4.870;2022-11-20T05:15:18;6.85;;;2.90;;
69244;SDS011;56357;52.304;4.870;2022-11-20T05:17:48;6.93;;;2.90;;
69244;SDS011;56357;52.304;4.870;2022-11-20T05:20:16;7.03;;;3.17;;
69244;SDS011;56357;52.304;4.870;2022-11-20T05:22:43;7.07;;;3.10;;
69244;SDS011;56357;52.304;4.870;2022-11-20T05:25:10;7.03;;;2.83;;
69244;SDS011;56357;52.304;4.870;2022-11-20T05:27:38;6.45;;;2.97;;
69244;SDS011;56357;52.304;4.870;2022-11-20T05:30:05;7.30;;;3.20;;
69244;SDS011;56357;52.304;4.870;2022-11-20T05:32:32;6.82;;;3.00;;
69244;SDS011;56357;52.304;4.870;2022-11-20T05:34:58;6.72;;;3.05;;
69244;SDS011;56357;52.304;4.870;2022-11-20T05:37:25;7.43;;;3.17;;
69244;SDS011;56357;52.304;4.870;2022-11-20T05:39:52;7.78;;;3.50;;
69244;SDS011;56357;52.304;4.870;2022-11-20T05:42:18;6.90;;;3.33;;
69244;SDS011;56357;52.304;4.870;2022-11-20T05:44:59;6.22;;;2.72;;
69244;SDS011;56357;52.304;4.870;2022-11-20T05:47:27;8.02;;;3.33;;
69244;SDS011;56357;52.304;4.870;2022-11-20T05:49:57;6.80;;;2.95;;
69244;SDS011;56357;52.304;4.870;2022-11-20T05:52:23;6.85;;;2.95;;
69244;SDS011;56357;52.304;4.870;2022-11-20T05:54:50;7.30;;;3.40;;
69244;SDS011;56357;52.304;4.870;2022-11-20T05:57:16;7.35;;;3.63;;
69244;SDS011;56357;52.304;4.870;2022-11-20T05:59:43;7.53;;;3.42;;
69244;SDS011;56357;52.304;4.870;2022-11-20T06:02:09;6.90;;;3.22;;
69244;SDS011;56357;52.304;4.870;2022-11-20T06:04:35;6.90;;;3.15;;
69244;SDS011;56357;52.304;4.870;2022-11-20T06:07:02;6.77;;;3.00;;
69244;SDS011;56357;52.304;4.870;2022-11-20T06:09:28;7.80;;;3.67;;
69244;SDS011;56357;52.304;4.870;2022-11-20T06:11:55;7.15;;;3.47;;
69244;SDS011;56357;52.304;4.870;2022-11-20T06:14:21;7.90;;;3.65;;
69244;SDS011;56357;52.304;4.870;2022-11-20T06:16:47;8.02;;;3.60;;
69244;SDS011;56357;52.304;4.870;2022-11-20T06:19:14;7.83;;;3.20;;
69244;SDS011;56357;52.304;4.870;2022-11-20T06:21:40;8.13;;;3.78;;
69244;SDS011;56357;52.304;4.870;2022-11-20T06:24:09;8.00;;;3.30;;
69244;SDS011;56357;52.304;4.870;2022-11-20T06:26:35;7.38;;;3.42;;
69244;SDS011;56357;52.304;4.870;2022-11-20T06:29:02;6.95;;;3.05;;
69244;SDS011;56357;52.304;4.870;2022-11-20T06:31:28;8.13;;;3.50;;
69244;SDS011;56357;52.304;4.870;2022-11-20T06:33:57;7.28;;;3.20;;
69244;SDS011;56357;52.304;4.870;2022-11-20T06:36:24;8.23;;;3.80;;
69244;SDS011;56357;52.304;4.870;2022-11-20T06:38:50;8.45;;;4.43;;
69244;SDS011;56357;52.304;4.870;2022-11-20T06:41:18;8.52;;;4.20;;
69244;SDS011;56357;52.304;4.870;2022-11-20T06:43:46;8.90;;;4.30;;
69244;SDS011;56357;52.304;4.870;2022-11-20T06:46:13;9.27;;;4.45;;
69244;SDS011;56357;52.304;4.870;2022-11-20T06:48:42;8.68;;;4.10;;
69244;SDS011;56357;52.304;4.870;2022-11-20T06:51:08;8.48;;;4.45;;
69244;SDS011;56357;52.304;4.870;2022-11-20T06:53:35;8.48;;;4.22;;
69244;SDS011;56357;52.304;4.870;2022-11-20T06:56:03;9.50;;;4.47;;
69244;SDS011;56357;52.304;4.870;2022-11-20T06:58:30;10.88;;;4.00;;
69244;SDS011;56357;52.304;4.870;2022-11-20T07:00:58;9.57;;;4.70;;
69244;SDS011;56357;52.304;4.870;2022-11-20T07:03:25;8.75;;;4.60;;
69244;SDS011;56357;52.304;4.870;2022-11-20T07:05:54;10.13;;;4.57;;
69244;SDS011;56357;52.304;4.870;2022-11-20T07:08:22;9.80;;;4.57;;
69244;SDS011;56357;52.304;4.870;2022-11-20T07:10:48;9.32;;;4.68;;
69244;SDS011;56357;52.304;4.870;2022-11-20T07:13:16;10.20;;;5.00;;
69244;SDS011;56357;52.304;4.870;2022-11-20T07:15:43;10.30;;;4.90;;
69244;SDS011;56357;52.304;4.870;2022-11-20T07:18:09;8.43;;;4.20;;
69244;SDS011;56357;52.304;4.870;2022-11-20T07:20:36;8.93;;;4.10;;
69244;SDS011;56357;52.304;4.870;2022-11-20T07:23:02;11.18;;;4.70;;
69244;SDS011;56357;52.304;4.870;2022-11-20T07:25:28;9.15;;;4.75;;
69244;SDS011;56357;52.304;4.870;2022-11-20T07:27:58;9.80;;;4.25;;
69244;SDS011;56357;52.304;4.870;2022-11-20T07:30:28;6.97;;;3.33;;
69244;SDS011;56357;52.304;4.870;2022-11-20T07:32:56;8.20;;;3.70;;
69244;SDS011;56357;52.304;4.870;2022-11-20T07:35:23;8.55;;;3.88;;
69244;SDS011;56357;52.304;4.870;2022-11-20T07:37:50;8.25;;;3.63;;
69244;SDS011;56357;52.304;4.870;2022-11-20T07:40:17;11.57;;;3.65;;
69244;SDS011;56357;52.304;4.870;2022-11-20T07:42:47;8.48;;;3.47;;
69244;SDS011;56357;52.304;4.870;2022-11-20T07:45:18;9.90;;;3.77;;
69244;SDS011;56357;52.304;4.870;2022-11-20T07:47:45;7.93;;;3.72;;
69244;SDS011;56357;52.304;4.870;2022-11-20T07:50:12;7.85;;;3.35;;
69244;SDS011;56357;52.304;4.870;2022-11-20T07:52:39;10.73;;;3.45;;
69244;SDS011;56357;52.304;4.870;2022-11-20T07:55:06;9.75;;;3.80;;
69244;SDS011;56357;52.304;4.870;2022-11-20T07:57:33;8.23;;;3.73;;
69244;SDS011;56357;52.304;4.870;2022-11-20T08:00:00;8.63;;;3.70;;
69244;SDS011;56357;52.304;4.870;2022-11-20T08:02:26;8.95;;;3.72;;
69244;SDS011;56357;52.304;4.870;2022-11-20T08:04:53;7.47;;;3.45;;
69244;SDS011;56357;52.304;4.870;2022-11-20T08:07:19;9.00;;;3.75;;
69244;SDS011;56357;52.304;4.870;2022-11-20T08:09:45;8.57;;;4.00;;
69244;SDS011;56357;52.304;4.870;2022-11-20T08:12:19;8.52;;;3.85;;
69244;SDS011;56357;52.304;4.870;2022-11-20T08:15:04;6.60;;;3.42;;
69244;SDS011;56357;52.304;4.870;2022-11-20T08:17:31;9.32;;;3.17;;
69244;SDS011;56357;52.304;4.870;2022-11-20T08:19:58;8.05;;;3.50;;
69244;SDS011;56357;52.304;4.870;2022-11-20T08:22:24;9.63;;;3.40;;
69244;SDS011;56357;52.304;4.870;2022-11-20T08:24:51;8.82;;;3.35;;
69244;SDS011;56357;52.304;4.870;2022-11-20T08:27:17;10.13;;;4.05;;
69244;SDS011;56357;52.304;4.870;2022-11-20T08:29:43;9.50;;;4.00;;
69244;SDS011;56357;52.304;4.870;2022-11-20T08:32:10;10.05;;;3.60;;
69244;SDS011;56357;52.304;4.870;2022-11-20T08:34:36;10.67;;;3.73;;
69244;SDS011;56357;52.304;4.870;2022-11-20T08:37:02;8.05;;;3.15;;
69244;SDS011;56357;52.304;4.870;2022-11-20T08:39:29;8.43;;;3.75;;
69244;SDS011;56357;52.304;4.870;2022-11-20T08:41:55;12.65;;;4.53;;
69244;SDS011;56357;52.304;4.870;2022-11-20T08:44:22;11.55;;;3.90;;
69244;SDS011;56357;52.304;4.870;2022-11-20T08:46:48;8.83;;;3.83;;
69244;SDS011;56357;52.304;4.870;2022-11-20T08:49:14;17.77;;;4.63;;
69244;SDS011;56357;52.304;4.870;2022-11-20T08:51:42;11.70;;;4.30;;
69244;SDS011;56357;52.304;4.870;2022-11-20T08:54:09;16.25;;;4.10;;
69244;SDS011;56357;52.304;4.870;2022-11-20T08:56:35;11.38;;;4.00;;
69244;SDS011;56357;52.304;4.870;2022-11-20T08:59:02;10.93;;;4.27;;
69244;SDS011;56357;52.304;4.870;2022-11-20T09:01:28;8.85;;;3.95;;
69244;SDS011;56357;52.304;4.870;2022-11-20T09:03:55;15.38;;;4.35;;
69244;SDS011;56357;52.304;4.870;2022-11-20T09:06:22;9.90;;;4.20;;
69244;SDS011;56357;52.304;4.870;2022-11-20T09:08:52;9.40;;;3.75;;
69244;SDS011;56357;52.304;4.870;2022-11-20T09:11:19;14.70;;;4.03;;
69244;SDS011;56357;52.304;4.870;2022-11-20T09:13:46;10.20;;;4.22;;
69244;SDS011;56357;52.304;4.870;2022-11-20T09:16:13;7.95;;;3.65;;
69244;SDS011;56357;52.304;4.870;2022-11-20T09:18:39;9.50;;;3.88;;
69244;SDS011;56357;52.304;4.870;2022-11-20T09:21:06;10.77;;;4.00;;
69244;SDS011;56357;52.304;4.870;2022-11-20T09:23:38;9.57;;;4.00;;
69244;SDS011;56357;52.304;4.870;2022-11-20T09:26:05;9.52;;;3.80;;
69244;SDS011;56357;52.304;4.870;2022-11-20T09:28:37;9.73;;;4.05;;
69244;SDS011;56357;52.304;4.870;2022-11-20T09:31:22;8.13;;;3.78;;
69244;SDS011;56357;52.304;4.870;2022-11-20T09:33:50;9.68;;;3.80;;
69244;SDS011;56357;52.304;4.870;2022-11-20T09:36:17;13.07;;;4.40;;
69244;SDS011;56357;52.304;4.870;2022-11-20T09:38:45;9.95;;;4.18;;
69244;SDS011;56357;52.304;4.870;2022-11-20T09:46:49;9.18;;;3.88;;
69244;SDS011;56357;52.304;4.870;2022-11-20T09:49:25;10.37;;;3.73;;
69244;SDS011;56357;52.304;4.870;2022-11-20T09:52:19;7.78;;;3.83;;
69244;SDS011;56357;52.304;4.870;2022-11-20T09:54:47;9.93;;;3.95;;
69244;SDS011;56357;52.304;4.870;2022-11-20T09:57:15;8.43;;;3.80;;
69244;SDS011;56357;52.304;4.870;2022-11-20T09:59:50;9.85;;;3.97;;
69244;SDS011;56357;52.304;4.870;2022-11-20T10:04:51;10.00;;;4.47;;
69244;SDS011;56357;52.304;4.870;2022-11-20T10:07:23;8.88;;;4.18;;
69244;SDS011;56357;52.304;4.870;2022-11-20T10:09:56;9.88;;;4.22;;
69244;SDS011;56357;52.304;4.870;2022-11-20T10:18:22;10.27;;;4.50;;
69244;SDS011;56357;52.304;4.870;2022-11-20T10:23:28;11.48;;;4.10;;
69244;SDS011;56357;52.304;4.870;2022-11-20T10:26:17;8.77;;;4.50;;
69244;SDS011;56357;52.304;4.870;2022-11-20T10:28:58;9.33;;;4.03;;
69244;SDS011;56357;52.304;4.870;2022-11-20T10:31:37;10.05;;;4.63;;
69244;SDS011;56357;52.304;4.870;2022-11-20T10:34:06;8.35;;;4.30;;
69244;SDS011;56357;52.304;4.870;2022-11-20T10:36:49;11.15;;;4.38;;
69244;SDS011;56357;52.304;4.870;2022-11-20T10:39:42;8.90;;;4.03;;
69244;SDS011;56357;52.304;4.870;2022-11-20T10:42:26;10.63;;;4.47;;
69244;SDS011;56357;52.304;4.870;2022-11-20T10:48:10;9.90;;;4.40;;
69244;SDS011;56357;52.304;4.870;2022-11-20T10:50:48;8.77;;;4.60;;
69244;SDS011;56357;52.304;4.870;2022-11-20T10:56:45;9.00;;;4.07;;
69244;SDS011;56357;52.304;4.870;2022-11-20T11:01:59;9.55;;;4.43;;
69244;SDS011;56357;52.304;4.870;2022-11-20T11:06:55;10.55;;;4.47;;
69244;SDS011;56357;52.304;4.870;2022-11-20T11:09:33;10.67;;;4.50;;
69244;SDS011;56357;52.304;4.870;2022-11-20T11:12:08;8.68;;;4.30;;
69244;SDS011;56357;52.304;4.870;2022-11-20T11:14:45;9.13;;;4.53;;
69244;SDS011;56357;52.304;4.870;2022-11-20T11:17:26;9.65;;;4.68;;
69244;SDS011;56357;52.304;4.870;2022-11-20T11:20:00;11.90;;;4.47;;
69244;SDS011;56357;52.304;4.870;2022-11-20T11:22:31;10.80;;;4.87;;
69244;SDS011;56357;52.304;4.870;2022-11-20T11:24:59;12.77;;;5.22;;
69244;SDS011;56357;52.304;4.870;2022-11-20T11:27:26;12.15;;;4.68;;
69244;SDS011;56357;52.304;4.870;2022-11-20T11:30:14;16.27;;;5.28;;
69244;SDS011;56357;52.304;4.870;2022-11-20T11:32:42;13.27;;;4.47;;
69244;SDS011;56357;52.304;4.870;2022-11-20T11:37:52;18.00;;;9.30;;
69244;SDS011;56357;52.304;4.870;2022-11-20T11:40:21;27.52;;;13.90;;
69244;SDS011;56357;52.304;4.870;2022-11-20T11:42:50;32.88;;;16.08;;
69244;SDS011;56357;52.304;4.870;2022-11-20T11:45:21;34.90;;;14.90;;
69244;SDS011;56357;52.304;4.870;2022-11-20T11:47:47;41.80;;;15.97;;
69244;SDS011;56357;52.304;4.870;2022-11-20T11:50:16;32.72;;;16.80;;
69244;SDS011;56357;52.304;4.870;2022-11-20T11:52:58;32.00;;;15.85;;
69244;SDS011;56357;52.304;4.870;2022-11-20T11:58:13;34.13;;;15.13;;
69244;SDS011;56357;52.304;4.870;2022-11-20T12:00:51;32.92;;;14.57;;
69244;SDS011;56357;52.304;4.870;2022-11-20T12:03:43;27.40;;;13.13;;
69244;SDS011;56357;52.304;4.870;2022-11-20T12:06:18;27.25;;;13.13;;
69244;SDS011;56357;52.304;4.870;2022-11-20T12:08:52;22.80;;;11.88;;
69244;SDS011;56357;52.304;4.870;2022-11-20T12:11:31;24.93;;;12.33;;
69244;SDS011;56357;52.304;4.870;2022-11-20T12:14:21;22.75;;;10.85;;
69244;SDS011;56357;52.304;4.870;2022-11-20T12:16:54;25.80;;;10.95;;
69244;SDS011;56357;52.304;4.870;2022-11-20T12:19:22;23.08;;;10.65;;
69244;SDS011;56357;52.304;4.870;2022-11-20T12:32:30;19.40;;;8.95;;
69244;SDS011;56357;52.304;4.870;2022-11-20T12:43:33;19.02;;;8.00;;
69244;SDS011;56357;52.304;4.870;2022-11-20T12:49:31;15.20;;;7.38;;
69244;SDS011;56357;52.304;4.870;2022-11-20T12:52:25;16.00;;;8.13;;
69244;SDS011;56357;52.304;4.870;2022-11-20T12:55:13;15.45;;;7.38;;
69244;SDS011;56357;52.304;4.870;2022-11-20T12:57:53;17.67;;;7.47;;
69244;SDS011;56357;52.304;4.870;2022-11-20T13:00:28;17.17;;;7.32;;
69244;SDS011;56357;52.304;4.870;2022-11-20T13:03:23;15.63;;;7.28;;
69244;SDS011;56357;52.304;4.870;2022-11-20T13:06:10;14.63;;;7.83;;
69244;SDS011;56357;52.304;4.870;2022-11-20T13:08:42;14.55;;;6.63;;
69244;SDS011;56357;52.304;4.870;2022-11-20T13:11:35;17.15;;;7.30;;
69244;SDS011;56357;52.304;4.870;2022-11-20T13:17:13;13.50;;;6.95;;
69244;SDS011;56357;52.304;4.870;2022-11-20T13:19:49;16.13;;;7.37;;
69244;SDS011;56357;52.304;4.870;2022-11-20T13:22:26;15.55;;;7.35;;
69244;SDS011;56357;52.304;4.870;2022-11-20T13:30:48;13.32;;;6.30;;
69244;SDS011;56357;52.304;4.870;2022-11-20T13:33:23;13.43;;;6.53;;
69244;SDS011;56357;52.304;4.870;2022-11-20T13:36:06;15.27;;;7.05;;
69244;SDS011;56357;52.304;4.870;2022-11-20T13:38:46;14.93;;;7.28;;
69244;SDS011;56357;52.304;4.870;2022-11-20T13:43:59;14.68;;;6.78;;
69244;SDS011;56357;52.304;4.870;2022-11-20T13:46:42;15.90;;;6.93;;
69244;SDS011;56357;52.304;4.870;2022-11-20T13:49:10;14.73;;;6.57;;
69244;SDS011;56357;52.304;4.870;2022-11-20T13:51:48;12.82;;;6.25;;
69244;SDS011;56357;52.304;4.870;2022-11-20T14:02:19;13.63;;;6.40;;
69244;SDS011;56357;52.304;4.870;2022-11-20T14:04:49;14.25;;;6.60;;
69244;SDS011;56357;52.304;4.870;2022-11-20T14:07:18;11.98;;;6.03;;
69244;SDS011;56357;52.304;4.870;2022-11-20T14:09:51;13.50;;;6.40;;
69244;SDS011;56357;52.304;4.870;2022-11-20T14:12:21;15.30;;;6.90;;
69244;SDS011;56357;52.304;4.870;2022-11-20T14:14:53;13.35;;;6.60;;
69244;SDS011;56357;52.304;4.870;2022-11-20T14:17:21;13.52;;;6.28;;
69244;SDS011;56357;52.304;4.870;2022-11-20T14:19:50;12.27;;;6.18;;
69244;SDS011;56357;52.304;4.870;2022-11-20T14:22:19;14.23;;;6.38;;
69244;SDS011;56357;52.304;4.870;2022-11-20T14:24:48;14.50;;;6.93;;
69244;SDS011;56357;52.304;4.870;2022-11-20T14:27:26;14.07;;;6.53;;
69244;SDS011;56357;52.304;4.870;2022-11-20T14:29:53;12.45;;;6.32;;
69244;SDS011;56357;52.304;4.870;2022-11-20T14:32:21;14.27;;;6.80;;
69244;SDS011;56357;52.304;4.870;2022-11-20T14:34:50;11.45;;;6.05;;
69244;SDS011;56357;52.304;4.870;2022-11-20T14:37:21;12.53;;;6.60;;
69244;SDS011;56357;52.304;4.870;2022-11-20T14:39:54;12.85;;;6.03;;
69244;SDS011;56357;52.304;4.870;2022-11-20T14:42:24;12.13;;;5.65;;
69244;SDS011;56357;52.304;4.870;2022-11-20T14:44:54;14.77;;;6.32;;
69244;SDS011;56357;52.304;4.870;2022-11-20T14:47:23;10.90;;;5.57;;
69244;SDS011;56357;52.304;4.870;2022-11-20T14:49:52;12.50;;;5.60;;
69244;SDS011;56357;52.304;4.870;2022-11-20T14:52:21;11.05;;;4.93;;
69244;SDS011;56357;52.304;4.870;2022-11-20T14:54:52;11.13;;;6.00;;
69244;SDS011;56357;52.304;4.870;2022-11-20T14:57:30;12.70;;;5.85;;
69244;SDS011;56357;52.304;4.870;2022-11-20T15:02:34;11.13;;;5.27;;
69244;SDS011;56357;52.304;4.870;2022-11-20T15:05:07;12.00;;;5.60;;
69244;SDS011;56357;52.304;4.870;2022-11-20T15:07:34;14.15;;;5.57;;
69244;SDS011;56357;52.304;4.870;2022-11-20T15:10:06;10.57;;;5.22;;
69244;SDS011;56357;52.304;4.870;2022-11-20T15:12:35;11.43;;;5.53;;
69244;SDS011;56357;52.304;4.870;2022-11-20T15:15:05;11.47;;;5.60;;
69244;SDS011;56357;52.304;4.870;2022-11-20T15:17:32;11.52;;;5.65;;
69244;SDS011;56357;52.304;4.870;2022-11-20T15:20:03;11.93;;;5.97;;
69244;SDS011;56357;52.304;4.870;2022-11-20T15:22:37;12.02;;;5.53;;
69244;SDS011;56357;52.304;4.870;2022-11-20T15:25:16;11.48;;;6.05;;
69244;SDS011;56357;52.304;4.870;2022-11-20T15:27:44;12.67;;;6.07;;
69244;SDS011;56357;52.304;4.870;2022-11-20T15:30:12;10.85;;;5.47;;
69244;SDS011;56357;52.304;4.870;2022-11-20T15:32:47;12.25;;;6.05;;
69244;SDS011;56357;52.304;4.870;2022-11-20T15:35:14;11.57;;;5.50;;
69244;SDS011;56357;52.304;4.870;2022-11-20T15:37:41;13.02;;;6.53;;
69244;SDS011;56357;52.304;4.870;2022-11-20T15:40:08;13.00;;;6.33;;
69244;SDS011;56357;52.304;4.870;2022-11-20T15:42:36;12.60;;;5.70;;
69244;SDS011;56357;52.304;4.870;2022-11-20T15:45:02;12.18;;;5.90;;
69244;SDS011;56357;52.304;4.870;2022-11-20T15:47:32;12.65;;;5.78;;
69244;SDS011;56357;52.304;4.870;2022-11-20T15:50:01;13.20;;;6.47;;
69244;SDS011;56357;52.304;4.870;2022-11-20T15:52:28;13.33;;;5.37;;
69244;SDS011;56357;52.304;4.870;2022-11-20T15:54:54;12.82;;;6.32;;
69244;SDS011;56357;52.304;4.870;2022-11-20T15:57:21;12.25;;;6.22;;
69244;SDS011;56357;52.304;4.870;2022-11-20T15:59:47;13.20;;;5.90;;
69244;SDS011;56357;52.304;4.870;2022-11-20T16:02:14;10.65;;;5.50;;
69244;SDS011;56357;52.304;4.870;2022-11-20T16:04:41;12.00;;;5.57;;
69244;SDS011;56357;52.304;4.870;2022-11-20T16:07:07;11.45;;;5.30;;
69244;SDS011;56357;52.304;4.870;2022-11-20T16:09:34;11.98;;;5.55;;
69244;SDS011;56357;52.304;4.870;2022-11-20T16:12:00;14.35;;;6.03;;
69244;SDS011;56357;52.304;4.870;2022-11-20T16:14:27;12.43;;;5.20;;
69244;SDS011;56357;52.304;4.870;2022-11-20T16:17:11;13.77;;;6.30;;
69244;SDS011;56357;52.304;4.870;2022-11-20T16:19:38;11.57;;;6.18;;
69244;SDS011;56357;52.304;4.870;2022-11-20T16:22:04;12.25;;;6.20;;
69244;SDS011;56357;52.304;4.870;2022-11-20T16:24:31;13.23;;;6.00;;